Time;durP1;ratioP1;P1;durP2;ratioP2;P2;SDS_P1;SDS_P2;PMS_P1;PMS_P2;Temp;Humidity;BMP_temperature;BMP_pressure;BME280_temperature;BME280_humidity;BME280_pressure;Samples;Min_cycle;Max_cycle;Signal;HPM_P1;HPM_P2
2022/04/14 00:31:58;;;;;;;5.30;3.42;;;12.00;76.60;;;;;;5110192;27;20629;-79
2022/04/14 00:34:26;;;;;;;4.47;3.60;;;11.90;78.60;;;;;;5110713;28;20236;-79
2022/04/14 00:36:54;;;;;;;6.43;4.10;;;11.90;79.10;;;;;;5110616;28;20299;-79
2022/04/14 00:39:23;;;;;;;3.90;3.60;;;11.90;79.70;;;;;;5110068;28;20224;-79
2022/04/14 00:41:51;;;;;;;4.40;3.58;;;11.90;79.80;;;;;;5110460;28;20243;-87
2022/04/14 00:44:19;;;;;;;4.32;2.92;;;11.90;80.60;;;;;;5110577;28;20200;-86
2022/04/14 00:46:48;;;;;;;4.00;3.55;;;11.90;80.50;;;;;;5113467;28;20287;-86
2022/04/14 00:49:19;;;;;;;6.10;3.67;;;11.80;80.50;;;;;;5119187;28;20273;-85
2022/04/14 00:51:48;;;;;;;4.50;3.72;;;11.80;81.10;;;;;;5119425;28;20231;-85
2022/04/14 00:54:17;;;;;;;5.50;4.00;;;11.80;81.30;;;;;;5118221;28;20204;-86
2022/04/14 00:56:45;;;;;;;3.75;3.08;;;11.80;81.80;;;;;;5110380;28;20209;-87
2022/04/14 00:59:13;;;;;;;3.80;3.42;;;11.70;82.10;;;;;;5117433;28;20259;-86
2022/04/14 01:01:42;;;;;;;4.18;3.35;;;11.70;82.40;;;;;;5120619;28;20247;-86
2022/04/14 01:04:12;;;;;;;3.35;3.05;;;11.70;82.70;;;;;;5118641;28;20208;-86
2022/04/14 01:06:41;;;;;;;3.72;3.15;;;11.70;82.90;;;;;;5110106;28;20298;-87
2022/04/14 01:09:20;;;;;;;3.42;3.13;;;11.60;83.30;;;;;;5109604;28;20204;-87
2022/04/14 01:11:50;;;;;;;4.20;3.80;;;11.60;83.20;;;;;;5109559;28;20224;-86
2022/04/14 01:14:25;;;;;;;4.43;3.60;;;11.70;83.60;;;;;;5109894;28;20208;-80
2022/04/14 01:16:54;;;;;;;5.25;3.67;;;11.60;83.90;;;;;;5109882;28;20290;-80
2022/04/14 01:19:23;;;;;;;4.57;3.58;;;11.60;84.30;;;;;;5109693;28;20208;-80
2022/04/14 01:21:58;;;;;;;6.07;3.63;;;11.60;84.80;;;;;;5108634;28;20223;-79
2022/04/14 01:24:29;;;;;;;6.53;3.65;;;11.50;84.80;;;;;;5109449;28;20290;-79
2022/04/14 01:26:59;;;;;;;2.97;2.75;;;11.50;85.50;;;;;;5109921;28;20263;-80
2022/04/14 01:29:29;;;;;;;3.63;3.33;;;11.50;85.40;;;;;;5109966;28;20215;-80
2022/04/14 01:31:58;;;;;;;7.43;4.18;;;11.40;85.70;;;;;;5101022;28;20223;-80
2022/04/14 01:34:29;;;;;;;4.28;3.58;;;11.40;86.40;;;;;;5095684;28;20208;-80
2022/04/14 01:36:58;;;;;;;3.63;3.33;;;11.40;86.90;;;;;;5095697;28;20228;-81
2022/04/14 01:39:29;;;;;;;3.05;2.85;;;11.30;86.90;;;;;;5095651;28;20228;-81
2022/04/14 01:41:57;;;;;;;9.63;3.95;;;11.30;86.80;;;;;;5095350;28;20320;-81
2022/04/14 01:44:26;;;;;;;2.97;2.78;;;11.30;87.30;;;;;;5095527;28;20204;-81
2022/04/14 01:46:54;;;;;;;3.10;2.90;;;11.20;87.80;;;;;;5095495;28;20224;-81
2022/04/14 01:49:22;;;;;;;3.10;2.85;;;11.30;87.80;;;;;;5095250;28;20269;-81
2022/04/14 01:51:51;;;;;;;3.40;3.10;;;11.20;87.40;;;;;;5095608;28;20311;-80
2022/04/14 01:54:19;;;;;;;2.97;2.78;;;11.30;87.90;;;;;;5095715;28;20303;-81
2022/04/14 01:56:49;;;;;;;3.17;2.88;;;11.20;88.00;;;;;;5095305;28;20201;-81
2022/04/14 01:59:18;;;;;;;4.80;3.33;;;11.20;88.20;;;;;;5094844;28;20231;-81
2022/04/14 02:01:46;;;;;;;3.90;3.25;;;11.20;89.10;;;;;;5094574;28;20319;-81
2022/04/14 02:04:15;;;;;;;3.47;3.17;;;11.10;89.80;;;;;;5094935;28;20210;-81
2022/04/14 02:06:43;;;;;;;2.88;2.50;;;11.20;88.40;;;;;;5095507;28;20236;-81
2022/04/14 02:09:12;;;;;;;4.28;2.88;;;11.20;87.10;;;;;;5095149;28;20304;-81
2022/04/14 02:11:40;;;;;;;3.35;3.05;;;11.20;88.20;;;;;;5095209;28;20240;-81
2022/04/14 02:14:10;;;;;;;3.20;3.00;;;11.20;87.10;;;;;;5095155;28;20208;-81
2022/04/14 02:16:38;;;;;;;3.17;2.97;;;11.30;87.50;;;;;;5095429;28;20287;-81
2022/04/14 02:19:07;;;;;;;5.30;2.72;;;11.30;86.90;;;;;;5095178;28;20209;-81
2022/04/14 02:21:35;;;;;;;3.88;3.22;;;11.20;87.70;;;;;;5094053;28;20228;-81
2022/04/14 02:24:04;;;;;;;2.88;2.63;;;11.30;87.30;;;;;;5094643;28;20292;-81
2022/04/14 02:26:32;;;;;;;2.90;2.70;;;11.20;87.50;;;;;;5095063;28;20299;-80
2022/04/14 02:29:00;;;;;;;4.68;3.50;;;11.20;87.50;;;;;;5094611;28;20212;-81
2022/04/14 02:31:30;;;;;;;4.88;3.03;;;11.20;87.40;;;;;;5094394;28;20320;-81
2022/04/14 02:33:59;;;;;;;3.40;3.00;;;11.20;87.70;;;;;;5094838;28;20196;-81
2022/04/14 02:36:27;;;;;;;2.78;2.58;;;11.10;87.30;;;;;;5094757;28;20291;-81
2022/04/14 02:38:55;;;;;;;2.78;2.58;;;11.20;87.80;;;;;;5094325;28;20295;-81
2022/04/14 02:41:24;;;;;;;4.60;2.65;;;11.20;87.70;;;;;;5093934;28;20303;-81
2022/04/14 02:43:52;;;;;;;2.35;2.25;;;11.10;87.60;;;;;;5093227;28;20210;-80
2022/04/14 02:46:20;;;;;;;4.55;2.92;;;11.20;87.40;;;;;;5094473;28;20239;-81
2022/04/14 02:48:50;;;;;;;3.28;3.05;;;11.10;87.80;;;;;;5094299;28;20208;-81
2022/04/14 02:51:18;;;;;;;2.75;2.55;;;11.10;87.10;;;;;;5093863;28;20238;-81
2022/04/14 02:53:46;;;;;;;2.70;2.50;;;11.10;87.30;;;;;;5094653;28;20279;-81
2022/04/14 02:56:15;;;;;;;3.08;2.88;;;11.10;87.40;;;;;;5093985;28;20299;-81
2022/04/14 02:58:43;;;;;;;3.53;3.25;;;11.10;87.10;;;;;;5093893;28;20290;-81
2022/04/14 03:01:11;;;;;;;9.65;2.50;;;11.10;86.90;;;;;;5093719;28;20233;-81
2022/04/14 03:03:40;;;;;;;2.88;2.55;;;11.10;86.80;;;;;;5093825;28;20201;-81
2022/04/14 03:06:09;;;;;;;3.30;2.95;;;11.10;86.50;;;;;;5093647;28;20238;-81
2022/04/14 03:08:38;;;;;;;2.72;2.53;;;11.10;86.60;;;;;;5094045;28;20238;-80
2022/04/14 03:11:06;;;;;;;2.85;2.58;;;11.10;86.50;;;;;;5093642;28;20281;-80
2022/04/14 03:13:34;;;;;;;3.88;3.15;;;11.10;86.40;;;;;;5094029;28;20295;-81
2022/04/14 03:16:03;;;;;;;3.60;2.72;;;11.10;86.60;;;;;;5093621;28;20205;-81
2022/04/14 03:18:31;;;;;;;4.53;3.13;;;11.10;86.60;;;;;;5093551;28;20287;-80
2022/04/14 03:20:59;;;;;;;2.55;2.35;;;11.00;87.20;;;;;;5093458;28;20312;-80
2022/04/14 03:23:29;;;;;;;2.95;2.75;;;11.00;86.00;;;;;;5093507;28;20205;-80
2022/04/14 03:25:57;;;;;;;2.53;2.40;;;11.00;86.10;;;;;;5093299;28;20209;-80
2022/04/14 03:28:26;;;;;;;3.80;3.30;;;11.00;86.70;;;;;;5093552;28;20264;-80
2022/04/14 03:30:58;;;;;;;5.97;3.28;;;11.00;87.50;;;;;;5093185;28;20239;-80
2022/04/14 03:33:27;;;;;;;3.00;2.67;;;10.90;88.30;;;;;;5093109;28;20216;-80
2022/04/14 03:35:55;;;;;;;3.10;2.72;;;10.90;90.50;;;;;;5093409;28;20204;-80
2022/04/14 03:38:24;;;;;;;4.60;2.95;;;10.80;89.70;;;;;;5093397;28;20204;-80
2022/04/14 03:41:05;;;;;;;4.53;3.35;;;10.80;90.30;;;;;;5093269;28;20311;-80
2022/04/14 03:43:34;;;;;;;6.32;3.80;;;10.70;90.60;;;;;;5093154;28;20288;-80
2022/04/14 03:46:03;;;;;;;3.38;3.08;;;10.70;90.80;;;;;;5092914;28;20208;-80
2022/04/14 03:48:32;;;;;;;7.47;3.10;;;10.60;90.80;;;;;;5093304;28;20280;-81
2022/04/14 03:51:00;;;;;;;4.13;3.50;;;10.60;90.90;;;;;;5092955;28;20220;-80
2022/04/14 03:53:28;;;;;;;3.83;3.17;;;10.60;90.90;;;;;;5093223;28;20287;-80
2022/04/14 03:55:56;;;;;;;3.80;3.03;;;10.50;91.00;;;;;;5092510;28;20208;-80
2022/04/14 03:58:26;;;;;;;4.05;3.30;;;10.50;91.20;;;;;;5093225;28;20283;-80
2022/04/14 04:00:55;;;;;;;5.43;3.33;;;10.50;91.30;;;;;;5092632;28;20304;-80
2022/04/14 04:03:23;;;;;;;4.82;3.30;;;10.50;91.50;;;;;;5092548;28;20224;-80
2022/04/14 04:05:51;;;;;;;4.97;3.28;;;10.50;91.10;;;;;;5093192;28;20220;-80
2022/04/14 04:08:20;;;;;;;3.47;3.00;;;10.50;90.70;;;;;;5092930;28;20316;-80
2022/04/14 04:10:49;;;;;;;5.32;3.25;;;10.60;90.40;;;;;;5092562;28;20315;-80
2022/04/14 04:13:17;;;;;;;3.40;2.83;;;10.50;90.30;;;;;;5092795;28;20269;-80
2022/04/14 04:15:47;;;;;;;2.65;2.45;;;10.60;90.60;;;;;;5092848;28;20219;-80
2022/04/14 04:18:15;;;;;;;3.38;3.08;;;10.60;90.40;;;;;;5083551;28;20197;-80
2022/04/14 04:20:44;;;;;;;4.13;3.40;;;10.60;90.20;;;;;;5092395;28;20308;-84
2022/04/14 04:23:12;;;;;;;2.70;2.50;;;10.60;90.10;;;;;;5092303;28;20307;-80
2022/04/14 04:25:40;;;;;;;3.55;2.90;;;10.60;89.80;;;;;;5092575;28;20243;-79
2022/04/14 04:28:09;;;;;;;3.95;2.85;;;10.60;91.40;;;;;;5077468;28;20205;-79
2022/04/14 04:30:37;;;;;;;2.97;2.78;;;10.60;90.70;;;;;;5092102;28;20284;-79
2022/04/14 04:33:07;;;;;;;6.18;3.08;;;10.70;92.00;;;;;;5086858;28;20216;-79
2022/04/14 04:35:37;;;;;;;3.00;2.80;;;10.70;90.00;;;;;;5081093;28;20260;-86
2022/04/14 04:38:05;;;;;;;2.88;2.67;;;10.70;89.70;;;;;;5092831;28;20239;-86
2022/04/14 04:40:34;;;;;;;3.22;2.55;;;10.70;88.90;;;;;;5092769;28;20288;-86
2022/04/14 04:43:02;;;;;;;2.58;2.38;;;10.70;88.30;;;;;;5093226;28;20228;-87
2022/04/14 04:45:31;;;;;;;2.92;2.72;;;10.70;89.10;;;;;;5093012;28;20204;-86
2022/04/14 04:48:02;;;;;;;2.55;2.42;;;10.80;89.40;;;;;;5092157;28;20220;-86
2022/04/14 04:50:32;;;;;;;3.60;2.85;;;10.80;88.50;;;;;;5085625;28;20224;-87
2022/04/14 04:53:00;;;;;;;3.08;2.60;;;10.80;88.20;;;;;;5092351;28;20276;-86
2022/04/14 04:55:29;;;;;;;3.80;3.17;;;10.80;87.80;;;;;;5092271;28;20288;-87
2022/04/14 04:57:58;;;;;;;4.07;3.00;;;10.70;87.60;;;;;;5092867;28;20264;-88
2022/04/14 05:00:26;;;;;;;2.83;2.58;;;10.70;88.30;;;;;;5092190;28;20315;-87
2022/04/14 05:02:56;;;;;;;6.28;3.67;;;10.70;88.10;;;;;;5091894;28;20303;-87
2022/04/14 05:05:25;;;;;;;4.00;3.55;;;10.70;88.50;;;;;;5088993;28;20200;-87
2022/04/14 05:07:56;;;;;;;3.03;2.83;;;10.70;88.50;;;;;;5085892;28;20262;-86
2022/04/14 05:10:24;;;;;;;3.15;2.70;;;10.70;89.00;;;;;;5086391;28;20220;-87
2022/04/14 05:12:54;;;;;;;5.18;3.35;;;10.70;88.30;;;;;;5085071;28;20289;-86
2022/04/14 05:15:22;;;;;;;4.00;3.08;;;10.80;89.10;;;;;;5084276;28;20254;-86
2022/04/14 05:17:51;;;;;;;3.53;3.10;;;10.80;88.10;;;;;;5075055;28;20209;-86
2022/04/14 05:20:19;;;;;;;3.97;2.80;;;10.80;87.40;;;;;;5075453;28;20438;-87
2022/04/14 05:22:47;;;;;;;3.70;3.28;;;10.80;87.50;;;;;;5075625;28;20297;-85
2022/04/14 05:25:17;;;;;;;2.78;2.53;;;10.80;87.00;;;;;;5079669;28;20209;-86
2022/04/14 05:27:45;;;;;;;2.80;2.55;;;10.90;89.30;;;;;;5089484;28;20227;-86
2022/04/14 05:30:14;;;;;;;5.38;3.22;;;10.90;87.10;;;;;;5095907;28;20208;-86
2022/04/14 05:32:42;;;;;;;2.55;2.35;;;10.90;87.70;;;;;;5078012;28;20198;-86
2022/04/14 05:35:11;;;;;;;2.92;2.33;;;10.90;87.70;;;;;;5076093;28;20201;-87
2022/04/14 05:37:39;;;;;;;3.55;2.75;;;10.90;87.50;;;;;;5078776;28;20222;-86
2022/04/14 05:40:09;;;;;;;3.17;2.90;;;11.00;87.20;;;;;;5095594;28;20200;-88
2022/04/14 05:42:38;;;;;;;3.25;2.80;;;11.00;86.90;;;;;;5094818;28;20214;-88
2022/04/14 05:45:07;;;;;;;3.17;2.88;;;11.10;86.40;;;;;;5095325;28;20264;-86
2022/04/14 05:47:36;;;;;;;2.78;2.58;;;11.10;85.80;;;;;;5095521;28;20196;-87
2022/04/14 05:50:06;;;;;;;3.30;2.78;;;11.10;85.50;;;;;;5096021;28;20325;-86
2022/04/14 05:52:34;;;;;;;4.68;3.17;;;11.20;87.30;;;;;;5096228;28;20293;-86
2022/04/14 05:55:02;;;;;;;3.08;2.78;;;11.20;85.70;;;;;;5095407;28;20251;-87
2022/04/14 05:57:31;;;;;;;2.45;2.25;;;11.30;85.00;;;;;;5095755;28;20224;-87
2022/04/14 06:00:01;;;;;;;4.05;3.25;;;11.30;84.20;;;;;;5095823;28;20228;-87
2022/04/14 06:02:29;;;;;;;2.45;2.25;;;11.40;85.00;;;;;;5095724;28;20244;-87
2022/04/14 06:04:58;;;;;;;3.97;2.28;;;11.40;83.60;;;;;;5096058;28;20192;-87
2022/04/14 06:07:26;;;;;;;3.15;2.58;;;11.50;83.50;;;;;;5084880;28;20219;-87
2022/04/14 06:09:54;;;;;;;3.72;3.20;;;11.60;83.50;;;;;;5095610;28;20224;-87
2022/04/14 06:12:22;;;;;;;3.45;3.13;;;11.60;83.50;;;;;;5095152;28;20262;-85
2022/04/14 06:14:51;;;;;;;3.58;3.08;;;11.70;83.20;;;;;;5091663;28;20189;-87
2022/04/14 06:17:21;;;;;;;3.00;2.78;;;11.80;82.40;;;;;;5075614;28;20204;-86
2022/04/14 06:19:50;;;;;;;3.25;2.75;;;11.90;82.40;;;;;;5075295;28;20296;-90
2022/04/14 06:22:18;;;;;;;4.18;2.63;;;12.00;83.00;;;;;;5083892;28;20299;-87
2022/04/14 06:24:46;;;;;;;3.78;3.35;;;12.00;82.20;;;;;;5093778;28;20201;-85
2022/04/14 06:27:15;;;;;;;3.20;2.58;;;12.10;81.60;;;;;;5080702;28;20280;-87
2022/04/14 06:29:43;;;;;;;4.05;2.83;;;12.10;82.10;;;;;;5075966;28;20201;-85
2022/04/14 06:32:11;;;;;;;3.13;2.65;;;12.20;81.60;;;;;;5075094;28;20243;-84
2022/04/14 06:34:45;;;;;;;3.08;2.67;;;12.30;82.50;;;;;;5074741;28;20213;-84
2022/04/14 06:37:13;;;;;;;2.78;2.58;;;12.30;81.00;;;;;;5074469;28;20219;-87
2022/04/14 06:39:41;;;;;;;3.47;3.10;;;12.50;81.50;;;;;;5073787;28;20212;-86
2022/04/14 06:42:10;;;;;;;2.90;2.60;;;12.50;81.70;;;;;;5074041;28;20221;-86
2022/04/14 06:44:38;;;;;;;3.53;2.38;;;12.70;82.10;;;;;;5074089;28;20274;-87
2022/04/14 06:47:07;;;;;;;5.10;3.40;;;12.70;81.30;;;;;;5073937;28;20209;-87
2022/04/14 06:49:35;;;;;;;3.47;2.85;;;12.80;81.10;;;;;;5073551;28;20209;-87
2022/04/14 06:52:05;;;;;;;5.45;2.85;;;12.90;80.10;;;;;;5073659;28;20290;-86
2022/04/14 06:54:34;;;;;;;3.08;2.75;;;13.00;80.40;;;;;;5073837;28;20247;-86
2022/04/14 06:57:03;;;;;;;3.40;3.10;;;13.10;79.50;;;;;;5073731;28;20197;-86
2022/04/14 06:59:31;;;;;;;3.03;2.58;;;13.30;79.80;;;;;;5074436;28;20280;-86
2022/04/14 07:01:59;;;;;;;3.08;2.45;;;13.30;80.90;;;;;;5073446;28;20248;-86
2022/04/14 07:04:28;;;;;;;6.18;3.13;;;13.40;79.20;;;;;;5074039;28;20308;-86
2022/04/14 07:06:56;;;;;;;3.53;2.92;;;13.50;80.10;;;;;;5073320;28;20261;-86
2022/04/14 07:09:28;;;;;;;3.88;3.05;;;13.60;78.80;;;;;;5073299;28;20265;-86
2022/04/14 07:11:58;;;;;;;2.72;2.53;;;13.60;79.30;;;;;;5073494;28;20221;-86
2022/04/14 07:14:27;;;;;;;3.15;2.88;;;13.80;78.50;;;;;;5073546;28;20285;-86
2022/04/14 07:16:55;;;;;;;3.22;2.58;;;13.90;79.00;;;;;;5073561;28;20289;-86
2022/04/14 07:19:24;;;;;;;3.05;2.85;;;14.00;79.60;;;;;;5073211;28;20213;-86
2022/04/14 07:21:52;;;;;;;2.80;2.58;;;14.10;77.90;;;;;;5073039;28;20304;-86
2022/04/14 07:24:21;;;;;;;4.20;2.88;;;14.20;77.90;;;;;;5073380;28;20275;-86
2022/04/14 07:26:51;;;;;;;2.55;2.35;;;14.30;77.10;;;;;;5073300;28;20213;-86
2022/04/14 07:29:19;;;;;;;3.10;2.45;;;14.50;77.20;;;;;;5072587;28;20301;-86
2022/04/14 07:31:49;;;;;;;6.32;2.85;;;14.60;76.10;;;;;;5072805;28;20229;-86
2022/04/14 07:34:18;;;;;;;2.47;2.28;;;14.70;76.00;;;;;;5073330;28;20225;-86
2022/04/14 07:36:46;;;;;;;3.38;2.90;;;14.70;75.10;;;;;;5073382;28;20205;-86
2022/04/14 07:39:15;;;;;;;2.67;2.47;;;14.80;74.60;;;;;;5073247;28;20251;-85
2022/04/14 07:41:43;;;;;;;3.08;2.78;;;14.80;74.40;;;;;;5072889;28;20245;-87
2022/04/14 07:44:13;;;;;;;5.75;3.00;;;14.90;74.70;;;;;;5072818;28;20225;-88
2022/04/14 07:46:41;;;;;;;5.40;3.28;;;15.00;74.70;;;;;;5072908;28;20291;-86
2022/04/14 07:49:15;;;;;;;4.15;2.95;;;15.20;74.00;;;;;;5072618;28;20201;-87
2022/04/14 07:51:44;;;;;;;3.15;2.83;;;15.40;73.60;;;;;;5072792;28;20269;-84
2022/04/14 07:54:12;;;;;;;2.90;2.70;;;15.60;73.20;;;;;;5073075;28;20193;-86
2022/04/14 07:56:40;;;;;;;3.95;2.58;;;15.70;73.20;;;;;;5072928;28;20208;-86
2022/04/14 07:59:09;;;;;;;5.88;2.80;;;15.80;72.50;;;;;;5073049;28;20201;-85
2022/04/14 08:01:52;;;;;;;4.07;2.67;;;16.00;71.90;;;;;;5072907;28;20228;-88
2022/04/14 08:04:21;;;;;;;14.88;2.75;;;16.20;71.60;;;;;;5072608;28;20256;-86
2022/04/14 08:06:49;;;;;;;3.95;2.60;;;16.40;71.10;;;;;;5071955;28;20212;-85
2022/04/14 08:09:37;;;;;;;4.20;2.72;;;16.80;70.10;;;;;;5072914;28;20201;-82
2022/04/14 08:12:07;;;;;;;6.60;2.42;;;17.10;69.00;;;;;;5072570;28;20229;-88
2022/04/14 08:14:35;;;;;;;2.47;2.28;;;17.90;68.10;;;;;;5072614;28;20292;-84
2022/04/14 08:17:05;;;;;;;2.03;1.92;;;19.20;66.90;;;;;;5072907;28;20209;-84
2022/04/14 08:19:34;;;;;;;3.85;2.70;;;20.40;63.80;;;;;;5072621;28;20251;-85
2022/04/14 08:22:02;;;;;;;2.80;2.55;;;21.80;61.10;;;;;;5072878;28;20233;-84
2022/04/14 08:24:36;;;;;;;3.95;2.53;;;22.40;58.80;;;;;;5072594;28;20220;-85
2022/04/14 08:27:04;;;;;;;3.72;2.83;;;23.30;57.40;;;;;;5072661;28;20288;-85
2022/04/14 08:29:33;;;;;;;3.95;3.45;;;24.10;56.50;;;;;;5072643;28;20201;-86
2022/04/14 08:32:07;;;;;;;4.10;3.40;;;24.50;53.90;;;;;;5072544;28;20260;-91
2022/04/14 08:34:37;;;;;;;5.70;5.20;;;25.00;52.60;;;;;;5072712;28;20296;-87
2022/04/14 08:37:11;;;;;;;3.55;3.22;;;25.20;51.70;;;;;;5072872;28;20208;-88
2022/04/14 08:39:39;;;;;;;4.22;3.83;;;25.40;51.70;;;;;;5072090;28;20225;-89
2022/04/14 08:42:16;;;;;;;3.83;3.35;;;25.40;50.90;;;;;;5073971;28;20308;-89
2022/04/14 08:44:51;;;;;;;3.00;2.80;;;26.00;50.60;;;;;;5076347;28;20221;-89
2022/04/14 08:47:22;;;;;;;2.72;2.35;;;26.80;50.00;;;;;;5076492;28;20204;-89
2022/04/14 08:49:53;;;;;;;2.92;2.67;;;27.30;48.60;;;;;;5076493;28;20209;-89
2022/04/14 08:52:23;;;;;;;3.67;3.17;;;27.00;47.40;;;;;;5076370;28;20299;-89
2022/04/14 08:54:52;;;;;;;3.20;2.85;;;26.10;48.30;;;;;;5076310;28;20197;-89
2022/04/14 08:57:20;;;;;;;2.80;2.60;;;25.90;49.30;;;;;;5076236;28;20216;-89
2022/04/14 08:59:50;;;;;;;3.83;2.55;;;26.20;48.50;;;;;;5076335;28;20216;-89
2022/04/14 09:02:22;;;;;;;6.65;3.25;;;27.00;48.60;;;;;;5075956;28;20312;-89
2022/04/14 09:04:51;;;;;;;4.68;2.90;;;28.10;46.60;;;;;;5075797;28;20304;-89
2022/04/14 09:07:21;;;;;;;3.03;2.83;;;28.40;46.30;;;;;;5076138;28;20293;-89
2022/04/14 09:09:50;;;;;;;3.00;2.70;;;28.50;46.50;;;;;;5076116;28;20204;-89
2022/04/14 09:12:21;;;;;;;3.08;2.50;;;29.20;45.30;;;;;;5075519;28;20251;-89
2022/04/14 09:14:50;;;;;;;2.60;2.40;;;29.60;45.80;;;;;;5076021;28;20246;-90
2022/04/14 09:17:23;;;;;;;3.75;2.80;;;29.10;44.50;;;;;;5075913;28;20200;-89
2022/04/14 09:19:52;;;;;;;3.83;2.97;;;29.40;44.40;;;;;;5075714;28;20200;-89
2022/04/14 09:22:20;;;;;;;2.38;2.22;;;28.90;45.20;;;;;;5075758;28;20244;-89
2022/04/14 09:24:50;;;;;;;3.15;2.88;;;28.90;44.40;;;;;;5075506;28;20317;-89
2022/04/14 09:27:29;;;;;;;7.47;3.10;;;28.70;44.80;;;;;;5075546;28;20283;-89
2022/04/14 09:29:59;;;;;;;3.50;2.65;;;28.10;44.40;;;;;;5075461;28;20229;-90
2022/04/14 09:32:32;;;;;;;2.13;2.03;;;28.10;44.90;;;;;;5075603;28;20258;-89
2022/04/14 09:35:05;;;;;;;4.38;3.28;;;28.10;44.40;;;;;;5075697;28;20197;-89
2022/04/14 09:37:34;;;;;;;3.10;2.78;;;27.70;43.70;;;;;;5075728;28;20235;-89
2022/04/14 09:40:05;;;;;;;2.72;2.53;;;26.80;44.70;;;;;;5075283;28;20268;-89
2022/04/14 09:42:35;;;;;;;3.33;2.35;;;26.30;45.90;;;;;;5075155;28;20216;-89
2022/04/14 09:45:19;;;;;;;3.97;2.97;;;25.90;47.00;;;;;;5075156;28;20216;-89
2022/04/14 09:48:07;;;;;;;3.25;2.75;;;25.90;46.60;;;;;;5075544;28;20208;-88
2022/04/14 09:50:39;;;;;;;3.00;2.50;;;26.10;47.60;;;;;;5075280;28;20228;-89
2022/04/14 09:53:09;;;;;;;2.72;2.53;;;26.60;47.20;;;;;;5074568;28;20212;-89
2022/04/14 09:55:42;;;;;;;2.63;2.42;;;27.40;47.10;;;;;;5075208;28;20284;-89
2022/04/14 09:58:13;;;;;;;2.53;2.33;;;27.90;46.60;;;;;;5075339;28;20247;-89
2022/04/14 10:00:44;;;;;;;3.67;2.85;;;28.50;44.40;;;;;;5074956;28;20245;-88
2022/04/14 10:03:16;;;;;;;3.10;2.80;;;28.60;43.80;;;;;;5075182;28;20205;-89
2022/04/14 10:05:46;;;;;;;6.07;2.92;;;28.80;43.90;;;;;;5074731;28;20221;-89
2022/04/14 10:08:15;;;;;;;4.47;2.80;;;28.70;43.90;;;;;;5075076;28;20204;-88
2022/04/14 10:10:45;;;;;;;3.13;2.45;;;29.10;43.50;;;;;;5074347;28;20316;-88
2022/04/14 10:13:15;;;;;;;3.65;2.92;;;29.10;43.60;;;;;;5074960;28;20289;-89
2022/04/14 10:15:45;;;;;;;3.00;2.50;;;28.90;43.40;;;;;;5075016;28;20221;-89
2022/04/14 10:18:17;;;;;;;3.78;3.10;;;28.80;43.20;;;;;;5074466;28;20223;-88
2022/04/14 10:20:47;;;;;;;3.42;2.65;;;28.50;43.50;;;;;;5074338;28;20311;-88
2022/04/14 10:23:16;;;;;;;3.45;2.50;;;27.70;44.40;;;;;;5074538;28;20284;-88
2022/04/14 10:25:45;;;;;;;2.65;2.45;;;27.20;43.60;;;;;;5074583;28;20244;-88
2022/04/14 10:28:15;;;;;;;3.20;2.58;;;27.60;46.30;;;;;;5074423;28;20296;-88
2022/04/14 10:30:46;;;;;;;2.38;2.17;;;27.90;44.10;;;;;;5073907;28;20251;-89
2022/04/14 10:33:22;;;;;;;2.85;2.55;;;28.30;44.00;;;;;;5074372;28;20201;-88
2022/04/14 10:35:51;;;;;;;2.65;2.45;;;28.30;43.30;;;;;;5074491;28;20292;-88
2022/04/14 10:38:23;;;;;;;3.05;2.55;;;28.00;43.10;;;;;;5074160;28;20213;-88
2022/04/14 10:40:57;;;;;;;2.40;2.20;;;27.80;43.60;;;;;;5074304;28;20216;-88
2022/04/14 10:43:26;;;;;;;3.13;2.47;;;27.70;44.10;;;;;;5074355;28;20212;-88
2022/04/14 10:45:56;;;;;;;4.28;2.90;;;27.80;43.30;;;;;;5074053;28;20221;-88
2022/04/14 10:48:31;;;;;;;2.70;2.50;;;28.30;43.90;;;;;;5073946;28;20213;-88
2022/04/14 10:51:18;;;;;;;2.28;2.15;;;28.60;42.20;;;;;;5073567;28;20229;-89
2022/04/14 10:53:51;;;;;;;4.10;2.50;;;28.70;43.40;;;;;;5073785;28;20303;-88
2022/04/14 10:56:44;;;;;;;2.90;2.40;;;29.30;42.50;;;;;;5073652;28;20201;-88
2022/04/14 10:59:13;;;;;;;7.60;2.38;;;29.60;41.00;;;;;;5068370;28;20262;-88
2022/04/14 11:02:08;;;;;;;3.53;2.83;;;29.40;41.90;;;;;;5073379;28;20221;-89
2022/04/14 11:04:53;;;;;;;2.30;2.20;;;29.30;41.00;;;;;;5072850;28;20213;-89
2022/04/14 11:07:22;;;;;;;3.38;2.47;;;29.30;41.30;;;;;;5073320;28;20205;-89
2022/04/14 11:09:57;;;;;;;5.55;2.60;;;29.30;42.00;;;;;;5073706;28;20240;-88
2022/04/14 11:12:28;;;;;;;2.60;2.40;;;29.10;41.70;;;;;;5073168;28;20231;-88
2022/04/14 11:14:58;;;;;;;3.17;2.88;;;28.90;40.70;;;;;;5073200;28;20216;-89
2022/04/14 11:18:03;;;;;;;2.92;2.50;;;28.90;42.20;;;;;;5073293;28;20213;-88
2022/04/14 11:20:56;;;;;;;3.38;2.78;;;29.20;41.60;;;;;;5072697;28;20228;-88
2022/04/14 11:23:28;;;;;;;2.78;2.55;;;29.60;42.60;;;;;;5073620;28;20239;-88
2022/04/14 11:26:09;;;;;;;2.90;2.67;;;29.90;40.50;;;;;;5073418;28;20225;-88
2022/04/14 11:28:39;;;;;;;4.85;2.80;;;30.10;40.50;;;;;;5072742;28;20201;-88
2022/04/14 11:31:24;;;;;;;3.25;2.95;;;30.00;40.60;;;;;;5072759;28;20261;-88
2022/04/14 11:33:57;;;;;;;7.80;2.83;;;30.00;41.00;;;;;;5073055;28;20259;-88
2022/04/14 11:36:41;;;;;;;3.88;3.13;;;30.00;41.40;;;;;;5073426;28;20299;-88
2022/04/14 11:39:20;;;;;;;3.38;2.92;;;29.90;41.10;;;;;;5073328;28;20212;-88
2022/04/14 11:41:51;;;;;;;2.60;2.40;;;29.50;40.40;;;;;;5072820;28;20224;-88
2022/04/14 11:44:20;;;;;;;2.72;2.53;;;29.20;41.90;;;;;;5072590;28;20248;-88
2022/04/14 11:46:51;;;;;;;2.88;2.67;;;29.40;42.60;;;;;;5072798;28;20225;-87
2022/04/14 11:49:21;;;;;;;5.50;2.55;;;29.30;41.20;;;;;;5072462;28;20228;-88
2022/04/14 11:51:52;;;;;;;3.13;2.83;;;28.80;42.70;;;;;;5072797;28;20316;-88
2022/04/14 11:54:22;;;;;;;2.50;2.30;;;28.90;41.90;;;;;;5072917;28;20204;-87
2022/04/14 11:57:10;;;;;;;4.22;3.20;;;28.90;42.20;;;;;;5072881;28;20204;-88
2022/04/14 11:59:42;;;;;;;4.70;3.17;;;29.10;42.90;;;;;;5072936;28;20232;-88
2022/04/14 12:02:11;;;;;;;3.17;2.88;;;29.10;41.80;;;;;;5072256;28;20221;-88
2022/04/14 12:04:43;;;;;;;2.60;2.40;;;29.10;42.00;;;;;;5072485;28;20227;-88
2022/04/14 12:07:14;;;;;;;3.60;2.92;;;29.20;42.30;;;;;;5072345;28;20304;-88
2022/04/14 12:09:43;;;;;;;4.85;2.80;;;29.10;41.30;;;;;;5072901;28;20247;-88
2022/04/14 12:12:13;;;;;;;4.65;2.67;;;28.90;41.70;;;;;;5072426;28;20297;-88
2022/04/14 12:14:42;;;;;;;2.55;2.35;;;28.70;41.60;;;;;;5072582;28;20204;-88
2022/04/14 12:17:11;;;;;;;2.67;2.47;;;29.00;42.80;;;;;;5072179;28;20205;-88
2022/04/14 12:19:45;;;;;;;2.47;2.28;;;29.20;42.00;;;;;;5072505;28;20209;-88
2022/04/14 12:22:15;;;;;;;3.63;2.25;;;28.70;42.30;;;;;;5072147;28;20292;-88
2022/04/14 12:24:51;;;;;;;2.90;2.60;;;28.70;42.60;;;;;;5072714;28;20244;-88
2022/04/14 12:27:23;;;;;;;3.33;2.58;;;29.00;42.80;;;;;;5072208;28;20251;-88
2022/04/14 12:29:53;;;;;;;2.17;2.08;;;29.30;42.10;;;;;;5072355;28;20209;-88
2022/04/14 12:32:25;;;;;;;4.97;2.70;;;29.50;42.30;;;;;;5072424;28;20237;-88
2022/04/14 12:34:54;;;;;;;3.55;2.55;;;29.40;42.40;;;;;;5072262;28;20228;-88
2022/04/14 12:37:34;;;;;;;3.42;3.10;;;29.40;40.90;;;;;;5072476;28;20198;-88
2022/04/14 12:40:11;;;;;;;3.13;2.83;;;29.40;41.30;;;;;;5071902;28;20259;-88
2022/04/14 12:42:40;;;;;;;2.50;2.30;;;29.40;41.70;;;;;;5072563;28;20232;-88
2022/04/14 12:45:10;;;;;;;2.67;2.47;;;29.40;41.50;;;;;;5072348;28;20290;-88
2022/04/14 12:47:41;;;;;;;5.13;2.97;;;29.50;42.50;;;;;;5072265;28;20217;-88
2022/04/14 12:50:11;;;;;;;2.65;2.03;;;29.70;41.20;;;;;;5071644;28;20205;-88
2022/04/14 12:52:47;;;;;;;2.60;2.40;;;29.60;40.90;;;;;;5072202;28;20250;-88
2022/04/14 12:55:22;;;;;;;3.20;2.90;;;29.40;41.50;;;;;;5072501;28;20205;-88
2022/04/14 12:57:52;;;;;;;2.67;2.25;;;29.40;41.40;;;;;;5072338;28;20401;-88
2022/04/14 13:00:21;;;;;;;3.05;2.75;;;28.70;41.60;;;;;;5072228;28;20232;-88
2022/04/14 13:03:00;;;;;;;4.10;2.85;;;28.40;41.60;;;;;;5072072;28;20243;-88
2022/04/14 13:05:30;;;;;;;3.33;2.83;;;28.40;42.20;;;;;;5072071;28;20283;-87
2022/04/14 13:08:00;;;;;;;2.97;2.67;;;28.00;42.00;;;;;;5071881;28;20236;-87
2022/04/14 13:10:34;;;;;;;3.25;2.60;;;27.90;43.30;;;;;;5072234;28;20234;-87
2022/04/14 13:13:04;;;;;;;2.40;2.25;;;27.80;42.00;;;;;;5072243;28;20224;-87
2022/04/14 13:15:33;;;;;;;2.50;2.30;;;27.60;43.10;;;;;;5072134;28;20268;-87
2022/04/14 13:18:02;;;;;;;2.72;2.53;;;27.50;44.10;;;;;;5072318;28;20205;-87
2022/04/14 13:20:36;;;;;;;2.50;2.40;;;27.60;43.80;;;;;;5071705;28;20298;-88
2022/04/14 13:23:08;;;;;;;2.70;2.47;;;27.80;43.20;;;;;;5071910;28;20259;-88
2022/04/14 13:25:37;;;;;;;3.83;3.20;;;27.70;42.90;;;;;;5071830;28;20255;-88
2022/04/14 13:28:07;;;;;;;2.70;2.50;;;27.50;42.80;;;;;;5073447;28;20252;-88
2022/04/14 13:30:35;;;;;;;2.60;2.40;;;27.40;42.40;;;;;;5075030;28;20290;-88
2022/04/14 13:33:04;;;;;;;2.85;2.53;;;27.00;43.00;;;;;;5075620;28;20289;-88
2022/04/14 13:35:33;;;;;;;2.28;2.05;;;27.20;43.10;;;;;;5075100;28;20264;-88